sensor_id;sensor_type;location;lat;lon;timestamp;P1;durP1;ratioP1;P2;durP2;ratioP2
1020;SDS011;499;42.648;23.270;2023-11-21T00:00:24;2.10;;;1.77;;
1020;SDS011;499;42.648;23.270;2023-11-21T00:03:46;1.70;;;1.30;;
1020;SDS011;499;42.648;23.270;2023-11-21T00:06:37;3.80;;;2.87;;
1020;SDS011;499;42.648;23.270;2023-11-21T00:09:31;2.40;;;2.20;;
1020;SDS011;499;42.648;23.270;2023-11-21T00:12:15;5.77;;;3.83;;
1020;SDS011;499;42.648;23.270;2023-11-21T00:14:56;3.07;;;2.77;;
1020;SDS011;499;42.648;23.270;2023-11-21T00:17:54;4.30;;;2.17;;
1020;SDS011;499;42.648;23.270;2023-11-21T00:21:00;2.63;;;2.23;;
1020;SDS011;499;42.648;23.270;2023-11-21T00:23:43;1.97;;;1.80;;
1020;SDS011;499;42.648;23.270;2023-11-21T00:26:21;2.10;;;1.80;;
1020;SDS011;499;42.648;23.270;2023-11-21T00:29:06;3.17;;;2.00;;
1020;SDS011;499;42.648;23.270;2023-11-21T00:31:45;1.60;;;1.50;;
1020;SDS011;499;42.648;23.270;2023-11-21T00:34:31;2.37;;;2.17;;
1020;SDS011;499;42.648;23.270;2023-11-21T00:37:16;2.30;;;2.00;;
1020;SDS011;499;42.648;23.270;2023-11-21T00:39:53;2.80;;;2.13;;
1020;SDS011;499;42.648;23.270;2023-11-21T00:42:32;2.73;;;2.53;;
1020;SDS011;499;42.648;23.270;2023-11-21T00:45:11;2.50;;;2.30;;
1020;SDS011;499;42.648;23.270;2023-11-21T00:47:47;3.83;;;2.70;;
1020;SDS011;499;42.648;23.270;2023-11-21T00:50:22;3.70;;;3.13;;
1020;SDS011;499;42.648;23.270;2023-11-21T00:53:08;4.37;;;2.87;;
1020;SDS011;499;42.648;23.270;2023-11-21T00:55:52;3.70;;;2.80;;
1020;SDS011;499;42.648;23.270;2023-11-21T00:58:49;2.80;;;2.50;;
1020;SDS011;499;42.648;23.270;2023-11-21T01:01:47;3.30;;;2.90;;
1020;SDS011;499;42.648;23.270;2023-11-21T01:04:21;3.07;;;2.30;;
1020;SDS011;499;42.648;23.270;2023-11-21T01:07:16;2.47;;;2.20;;
1020;SDS011;499;42.648;23.270;2023-11-21T01:10:11;2.53;;;2.03;;
1020;SDS011;499;42.648;23.270;2023-11-21T01:13:03;1.70;;;1.60;;
1020;SDS011;499;42.648;23.270;2023-11-21T01:15:51;2.77;;;2.03;;
1020;SDS011;499;42.648;23.270;2023-11-21T01:18:40;2.90;;;2.60;;
1020;SDS011;499;42.648;23.270;2023-11-21T01:21:15;3.30;;;2.40;;
1020;SDS011;499;42.648;23.270;2023-11-21T01:23:45;3.20;;;2.40;;
1020;SDS011;499;42.648;23.270;2023-11-21T01:26:23;3.27;;;2.80;;
1020;SDS011;499;42.648;23.270;2023-11-21T01:29:09;2.50;;;2.30;;
1020;SDS011;499;42.648;23.270;2023-11-21T01:31:50;3.10;;;2.50;;
1020;SDS011;499;42.648;23.270;2023-11-21T01:34:24;2.47;;;2.27;;
1020;SDS011;499;42.648;23.270;2023-11-21T01:36:53;2.50;;;1.90;;
1020;SDS011;499;42.648;23.270;2023-11-21T01:39:21;2.90;;;1.80;;
1020;SDS011;499;42.648;23.270;2023-11-21T01:41:52;2.20;;;1.70;;
1020;SDS011;499;42.648;23.270;2023-11-21T01:44:23;1.83;;;1.60;;
1020;SDS011;499;42.648;23.270;2023-11-21T01:47:17;3.60;;;2.30;;
1020;SDS011;499;42.648;23.270;2023-11-21T01:49:50;2.33;;;1.97;;
1020;SDS011;499;42.648;23.270;2023-11-21T01:52:22;3.13;;;2.80;;
1020;SDS011;499;42.648;23.270;2023-11-21T01:55:14;3.47;;;2.93;;
1020;SDS011;499;42.648;23.270;2023-11-21T01:58:55;4.83;;;3.60;;
1020;SDS011;499;42.648;23.270;2023-11-21T02:02:13;4.40;;;2.90;;
1020;SDS011;499;42.648;23.270;2023-11-21T02:04:57;3.57;;;2.63;;
1020;SDS011;499;42.648;23.270;2023-11-21T02:07:26;2.90;;;2.50;;
1020;SDS011;499;42.648;23.270;2023-11-21T02:09:55;4.77;;;2.83;;
1020;SDS011;499;42.648;23.270;2023-11-21T02:12:25;4.47;;;3.90;;
1020;SDS011;499;42.648;23.270;2023-11-21T02:15:28;3.53;;;3.03;;
1020;SDS011;499;42.648;23.270;2023-11-21T02:18:19;4.57;;;2.80;;
1020;SDS011;499;42.648;23.270;2023-11-21T02:20:56;4.10;;;3.10;;
1020;SDS011;499;42.648;23.270;2023-11-21T02:26:50;4.77;;;2.83;;
1020;SDS011;499;42.648;23.270;2023-11-21T02:29:49;2.97;;;2.67;;
1020;SDS011;499;42.648;23.270;2023-11-21T02:33:02;7.10;;;3.80;;
1020;SDS011;499;42.648;23.270;2023-11-21T02:36:18;6.77;;;3.87;;
1020;SDS011;499;42.648;23.270;2023-11-21T02:39:06;5.10;;;3.60;;
1020;SDS011;499;42.648;23.270;2023-11-21T02:45:55;4.87;;;3.40;;
1020;SDS011;499;42.648;23.270;2023-11-21T02:48:37;4.43;;;2.73;;
1020;SDS011;499;42.648;23.270;2023-11-21T02:51:07;3.77;;;3.37;;
1020;SDS011;499;42.648;23.270;2023-11-21T02:54:08;3.43;;;2.77;;
1020;SDS011;499;42.648;23.270;2023-11-21T02:56:41;5.57;;;3.33;;
1020;SDS011;499;42.648;23.270;2023-11-21T02:59:23;2.73;;;2.53;;
1020;SDS011;499;42.648;23.270;2023-11-21T03:02:23;3.43;;;2.37;;
1020;SDS011;499;42.648;23.270;2023-11-21T03:04:59;2.97;;;2.17;;
1020;SDS011;499;42.648;23.270;2023-11-21T03:07:46;3.10;;;2.00;;
1020;SDS011;499;42.648;23.270;2023-11-21T03:10:25;1.47;;;1.30;;
1020;SDS011;499;42.648;23.270;2023-11-21T03:12:56;1.90;;;1.70;;
1020;SDS011;499;42.648;23.270;2023-11-21T03:15:46;2.50;;;1.50;;
1020;SDS011;499;42.648;23.270;2023-11-21T03:18:40;2.00;;;1.60;;
1020;SDS011;499;42.648;23.270;2023-11-21T03:21:33;3.37;;;1.93;;
1020;SDS011;499;42.648;23.270;2023-11-21T03:24:44;1.50;;;1.30;;
1020;SDS011;499;42.648;23.270;2023-11-21T03:27:19;2.77;;;2.57;;
1020;SDS011;499;42.648;23.270;2023-11-21T03:30:09;1.70;;;1.60;;
1020;SDS011;499;42.648;23.270;2023-11-21T03:33:07;2.33;;;1.60;;
1020;SDS011;499;42.648;23.270;2023-11-21T03:36:08;2.20;;;1.70;;
1020;SDS011;499;42.648;23.270;2023-11-21T03:38:43;2.23;;;1.80;;
1020;SDS011;499;42.648;23.270;2023-11-21T03:41:38;1.83;;;1.73;;
1020;SDS011;499;42.648;23.270;2023-11-21T03:44:31;2.53;;;1.60;;
1020;SDS011;499;42.648;23.270;2023-11-21T03:47:20;2.27;;;2.07;;
1020;SDS011;499;42.648;23.270;2023-11-21T03:50:13;2.97;;;2.10;;
1020;SDS011;499;42.648;23.270;2023-11-21T03:56:12;4.67;;;4.30;;
1020;SDS011;499;42.648;23.270;2023-11-21T03:58:43;4.13;;;3.83;;
1020;SDS011;499;42.648;23.270;2023-11-21T04:05:09;3.40;;;3.07;;
1020;SDS011;499;42.648;23.270;2023-11-21T04:08:12;3.20;;;2.90;;
1020;SDS011;499;42.648;23.270;2023-11-21T04:14:33;2.53;;;2.33;;
1020;SDS011;499;42.648;23.270;2023-11-21T04:17:18;2.43;;;1.93;;
1020;SDS011;499;42.648;23.270;2023-11-21T04:19:51;2.20;;;1.73;;
1020;SDS011;499;42.648;23.270;2023-11-21T04:22:38;2.00;;;1.80;;
1020;SDS011;499;42.648;23.270;2023-11-21T04:25:20;2.43;;;2.23;;
1020;SDS011;499;42.648;23.270;2023-11-21T04:28:35;2.07;;;1.87;;
1020;SDS011;499;42.648;23.270;2023-11-21T04:31:33;3.10;;;2.60;;
1020;SDS011;499;42.648;23.270;2023-11-21T04:34:06;3.37;;;2.87;;
1020;SDS011;499;42.648;23.270;2023-11-21T04:36:40;2.80;;;2.40;;
1020;SDS011;499;42.648;23.270;2023-11-21T04:39:25;3.77;;;3.33;;
1020;SDS011;499;42.648;23.270;2023-11-21T04:41:57;3.97;;;3.17;;
1020;SDS011;499;42.648;23.270;2023-11-21T04:44:33;4.17;;;3.37;;
1020;SDS011;499;42.648;23.270;2023-11-21T04:47:38;3.97;;;3.40;;
1020;SDS011;499;42.648;23.270;2023-11-21T04:50:18;5.10;;;3.67;;
1020;SDS011;499;42.648;23.270;2023-11-21T04:52:51;4.70;;;3.60;;
1020;SDS011;499;42.648;23.270;2023-11-21T04:55:27;5.33;;;4.20;;
1020;SDS011;499;42.648;23.270;2023-11-21T04:58:23;5.77;;;4.80;;
1020;SDS011;499;42.648;23.270;2023-11-21T05:00:54;5.43;;;4.53;;
1020;SDS011;499;42.648;23.270;2023-11-21T05:03:23;6.47;;;4.77;;
1020;SDS011;499;42.648;23.270;2023-11-21T05:05:55;5.87;;;4.67;;
1020;SDS011;499;42.648;23.270;2023-11-21T05:08:25;6.90;;;5.47;;
1020;SDS011;499;42.648;23.270;2023-11-21T05:10:56;7.70;;;5.40;;
1020;SDS011;499;42.648;23.270;2023-11-21T05:13:27;8.63;;;6.00;;
1020;SDS011;499;42.648;23.270;2023-11-21T05:16:13;6.50;;;5.83;;
1020;SDS011;499;42.648;23.270;2023-11-21T05:18:59;6.50;;;5.23;;
1020;SDS011;499;42.648;23.270;2023-11-21T05:21:40;6.30;;;5.70;;
1020;SDS011;499;42.648;23.270;2023-11-21T05:24:28;5.50;;;4.67;;
1020;SDS011;499;42.648;23.270;2023-11-21T05:27:29;5.27;;;4.27;;
1020;SDS011;499;42.648;23.270;2023-11-21T05:30:43;7.70;;;5.40;;
1020;SDS011;499;42.648;23.270;2023-11-21T05:33:31;5.40;;;4.33;;
1020;SDS011;499;42.648;23.270;2023-11-21T05:36:23;4.50;;;3.70;;
1020;SDS011;499;42.648;23.270;2023-11-21T05:39:26;7.40;;;4.00;;
1020;SDS011;499;42.648;23.270;2023-11-21T05:42:02;4.50;;;3.63;;
1020;SDS011;499;42.648;23.270;2023-11-21T05:44:53;5.67;;;3.33;;
1020;SDS011;499;42.648;23.270;2023-11-21T05:47:52;3.47;;;3.17;;
1020;SDS011;499;42.648;23.270;2023-11-21T05:50:26;3.40;;;3.10;;
1020;SDS011;499;42.648;23.270;2023-11-21T05:53:04;4.70;;;3.20;;
1020;SDS011;499;42.648;23.270;2023-11-21T05:56:10;5.17;;;4.60;;
1020;SDS011;499;42.648;23.270;2023-11-21T05:58:53;4.73;;;4.27;;
1020;SDS011;499;42.648;23.270;2023-11-21T06:01:30;5.37;;;4.10;;
1020;SDS011;499;42.648;23.270;2023-11-21T06:04:05;7.40;;;5.70;;
1020;SDS011;499;42.648;23.270;2023-11-21T06:06:52;9.07;;;7.10;;
1020;SDS011;499;42.648;23.270;2023-11-21T06:09:25;6.70;;;6.00;;
1020;SDS011;499;42.648;23.270;2023-11-21T06:11:59;7.07;;;5.53;;
1020;SDS011;499;42.648;23.270;2023-11-21T06:14:41;8.53;;;6.70;;
1020;SDS011;499;42.648;23.270;2023-11-21T06:17:21;18.00;;;12.80;;
1020;SDS011;499;42.648;23.270;2023-11-21T06:19:55;15.10;;;11.37;;
1020;SDS011;499;42.648;23.270;2023-11-21T06:22:38;15.97;;;11.73;;
1020;SDS011;499;42.648;23.270;2023-11-21T06:25:18;13.50;;;11.67;;
1020;SDS011;499;42.648;23.270;2023-11-21T06:28:00;14.17;;;12.67;;
1020;SDS011;499;42.648;23.270;2023-11-21T06:30:39;16.13;;;13.97;;
1020;SDS011;499;42.648;23.270;2023-11-21T06:33:22;18.40;;;14.50;;
1020;SDS011;499;42.648;23.270;2023-11-21T06:36:03;24.30;;;14.90;;
1020;SDS011;499;42.648;23.270;2023-11-21T06:38:51;31.80;;;13.70;;
1020;SDS011;499;42.648;23.270;2023-11-21T06:41:41;16.43;;;13.13;;
1020;SDS011;499;42.648;23.270;2023-11-21T06:44:18;27.50;;;13.50;;
1020;SDS011;499;42.648;23.270;2023-11-21T06:46:57;19.97;;;13.57;;
1020;SDS011;499;42.648;23.270;2023-11-21T06:49:35;15.90;;;12.70;;
1020;SDS011;499;42.648;23.270;2023-11-21T06:52:13;12.60;;;10.03;;
1020;SDS011;499;42.648;23.270;2023-11-21T06:58:29;16.13;;;12.60;;
1020;SDS011;499;42.648;23.270;2023-11-21T07:01:22;19.10;;;13.80;;
1020;SDS011;499;42.648;23.270;2023-11-21T07:03:59;18.43;;;13.87;;
1020;SDS011;499;42.648;23.270;2023-11-21T07:06:29;20.50;;;15.40;;
1020;SDS011;499;42.648;23.270;2023-11-21T07:09:04;17.93;;;13.97;;
1020;SDS011;499;42.648;23.270;2023-11-21T07:11:57;23.73;;;14.60;;
1020;SDS011;499;42.648;23.270;2023-11-21T07:14:53;15.63;;;12.70;;
1020;SDS011;499;42.648;23.270;2023-11-21T07:18:21;19.23;;;14.70;;
1020;SDS011;499;42.648;23.270;2023-11-21T07:21:31;23.70;;;16.10;;
1020;SDS011;499;42.648;23.270;2023-11-21T07:24:29;17.47;;;15.13;;
1020;SDS011;499;42.648;23.270;2023-11-21T07:27:18;19.70;;;14.80;;
1020;SDS011;499;42.648;23.270;2023-11-21T07:30:00;29.67;;;16.13;;
1020;SDS011;499;42.648;23.270;2023-11-21T07:32:51;21.57;;;16.70;;
1020;SDS011;499;42.648;23.270;2023-11-21T07:35:57;24.80;;;17.80;;
1020;SDS011;499;42.648;23.270;2023-11-21T07:38:26;22.20;;;18.20;;
1020;SDS011;499;42.648;23.270;2023-11-21T07:40:57;23.87;;;18.07;;
1020;SDS011;499;42.648;23.270;2023-11-21T07:43:27;21.60;;;16.80;;
1020;SDS011;499;42.648;23.270;2023-11-21T07:46:00;21.50;;;16.70;;
1020;SDS011;499;42.648;23.270;2023-11-21T07:48:36;26.77;;;18.17;;
1020;SDS011;499;42.648;23.270;2023-11-21T07:51:11;22.03;;;18.17;;
1020;SDS011;499;42.648;23.270;2023-11-21T07:53:50;23.27;;;18.60;;
1020;SDS011;499;42.648;23.270;2023-11-21T07:56:28;26.57;;;17.80;;
1020;SDS011;499;42.648;23.270;2023-11-21T07:59:25;22.13;;;16.53;;
1020;SDS011;499;42.648;23.270;2023-11-21T08:02:08;22.23;;;17.30;;
1020;SDS011;499;42.648;23.270;2023-11-21T08:05:07;20.77;;;17.90;;
1020;SDS011;499;42.648;23.270;2023-11-21T08:08:09;23.97;;;19.63;;
1020;SDS011;499;42.648;23.270;2023-11-21T08:10:59;20.53;;;18.23;;
1020;SDS011;499;42.648;23.270;2023-11-21T08:13:30;26.77;;;19.27;;
1020;SDS011;499;42.648;23.270;2023-11-21T08:16:19;29.30;;;17.60;;
1020;SDS011;499;42.648;23.270;2023-11-21T08:19:05;23.00;;;18.40;;
1020;SDS011;499;42.648;23.270;2023-11-21T08:22:06;24.50;;;19.50;;
1020;SDS011;499;42.648;23.270;2023-11-21T08:25:28;24.00;;;16.87;;
1020;SDS011;499;42.648;23.270;2023-11-21T08:28:13;34.43;;;17.30;;
1020;SDS011;499;42.648;23.270;2023-11-21T08:30:46;17.80;;;15.43;;
1020;SDS011;499;42.648;23.270;2023-11-21T08:33:20;21.40;;;18.57;;
1020;SDS011;499;42.648;23.270;2023-11-21T08:35:52;27.60;;;19.73;;
1020;SDS011;499;42.648;23.270;2023-11-21T08:38:21;22.70;;;15.47;;
1020;SDS011;499;42.648;23.270;2023-11-21T08:41:00;18.73;;;15.40;;
1020;SDS011;499;42.648;23.270;2023-11-21T08:43:50;18.80;;;15.03;;
1020;SDS011;499;42.648;23.270;2023-11-21T08:46:24;24.13;;;18.00;;
1020;SDS011;499;42.648;23.270;2023-11-21T08:49:29;18.97;;;14.33;;
1020;SDS011;499;42.648;23.270;2023-11-21T08:52:12;15.43;;;13.67;;
1020;SDS011;499;42.648;23.270;2023-11-21T08:55:05;19.13;;;15.63;;
1020;SDS011;499;42.648;23.270;2023-11-21T08:57:47;25.43;;;17.60;;
1020;SDS011;499;42.648;23.270;2023-11-21T09:00:20;21.20;;;18.63;;
1020;SDS011;499;42.648;23.270;2023-11-21T09:03:14;23.60;;;18.30;;
1020;SDS011;499;42.648;23.270;2023-11-21T09:06:06;24.47;;;20.60;;
1020;SDS011;499;42.648;23.270;2023-11-21T09:08:37;27.67;;;21.60;;
1020;SDS011;499;42.648;23.270;2023-11-21T09:11:29;23.70;;;21.13;;
1020;SDS011;499;42.648;23.270;2023-11-21T09:14:51;25.40;;;19.97;;
1020;SDS011;499;42.648;23.270;2023-11-21T09:17:43;25.53;;;21.03;;
1020;SDS011;499;42.648;23.270;2023-11-21T09:20:40;22.80;;;19.40;;
1020;SDS011;499;42.648;23.270;2023-11-21T09:23:52;26.40;;;20.17;;
1020;SDS011;499;42.648;23.270;2023-11-21T09:26:50;29.70;;;20.70;;
1020;SDS011;499;42.648;23.270;2023-11-21T09:29:25;28.90;;;20.63;;
1020;SDS011;499;42.648;23.270;2023-11-21T09:31:57;28.70;;;22.40;;
1020;SDS011;499;42.648;23.270;2023-11-21T09:34:27;24.70;;;21.10;;
1020;SDS011;499;42.648;23.270;2023-11-21T09:36:58;26.13;;;20.93;;
1020;SDS011;499;42.648;23.270;2023-11-21T09:39:38;24.60;;;20.63;;
1020;SDS011;499;42.648;23.270;2023-11-21T09:42:18;28.37;;;21.57;;
1020;SDS011;499;42.648;23.270;2023-11-21T09:44:51;27.63;;;21.40;;
1020;SDS011;499;42.648;23.270;2023-11-21T09:47:28;22.73;;;18.73;;
1020;SDS011;499;42.648;23.270;2023-11-21T09:50:03;21.80;;;16.80;;
1020;SDS011;499;42.648;23.270;2023-11-21T09:52:53;18.10;;;16.07;;
1020;SDS011;499;42.648;23.270;2023-11-21T09:55:31;22.30;;;17.00;;
1020;SDS011;499;42.648;23.270;2023-11-21T09:58:11;22.57;;;17.83;;
1020;SDS011;499;42.648;23.270;2023-11-21T10:00:43;22.30;;;18.60;;
1020;SDS011;499;42.648;23.270;2023-11-21T10:03:22;24.07;;;20.30;;
1020;SDS011;499;42.648;23.270;2023-11-21T10:06:03;25.97;;;18.07;;
1020;SDS011;499;42.648;23.270;2023-11-21T10:08:42;28.43;;;17.80;;
1020;SDS011;499;42.648;23.270;2023-11-21T10:11:13;22.10;;;18.03;;
1020;SDS011;499;42.648;23.270;2023-11-21T10:14:05;20.43;;;15.60;;
1020;SDS011;499;42.648;23.270;2023-11-21T10:17:01;23.97;;;17.87;;
1020;SDS011;499;42.648;23.270;2023-11-21T10:19:50;19.43;;;15.30;;
1020;SDS011;499;42.648;23.270;2023-11-21T10:22:43;16.33;;;14.47;;
1020;SDS011;499;42.648;23.270;2023-11-21T10:25:40;18.40;;;16.20;;
1020;SDS011;499;42.648;23.270;2023-11-21T10:28:23;17.97;;;14.40;;
1020;SDS011;499;42.648;23.270;2023-11-21T10:31:41;19.70;;;15.17;;
1020;SDS011;499;42.648;23.270;2023-11-21T10:34:18;24.83;;;14.83;;
1020;SDS011;499;42.648;23.270;2023-11-21T10:40:10;16.17;;;14.40;;
1020;SDS011;499;42.648;23.270;2023-11-21T10:43:01;19.00;;;14.70;;
1020;SDS011;499;42.648;23.270;2023-11-21T10:46:04;16.80;;;14.97;;
1020;SDS011;499;42.648;23.270;2023-11-21T10:48:59;17.50;;;13.67;;
1020;SDS011;499;42.648;23.270;2023-11-21T10:51:48;16.30;;;14.63;;
1020;SDS011;499;42.648;23.270;2023-11-21T10:58:08;19.20;;;14.23;;
1020;SDS011;499;42.648;23.270;2023-11-21T11:01:32;14.67;;;12.10;;
1020;SDS011;499;42.648;23.270;2023-11-21T11:04:42;18.03;;;12.53;;
1020;SDS011;499;42.648;23.270;2023-11-21T11:07:44;15.67;;;11.10;;
1020;SDS011;499;42.648;23.270;2023-11-21T11:10:44;15.47;;;11.20;;
1020;SDS011;499;42.648;23.270;2023-11-21T11:13:46;15.17;;;11.37;;
1020;SDS011;499;42.648;23.270;2023-11-21T11:16:23;13.33;;;11.17;;
1020;SDS011;499;42.648;23.270;2023-11-21T11:19:18;22.50;;;13.13;;
1020;SDS011;499;42.648;23.270;2023-11-21T11:21:53;19.17;;;11.67;;
1020;SDS011;499;42.648;23.270;2023-11-21T11:28:10;10.53;;;9.20;;
1020;SDS011;499;42.648;23.270;2023-11-21T11:31:00;10.80;;;9.70;;
1020;SDS011;499;42.648;23.270;2023-11-21T11:33:52;13.07;;;11.10;;
1020;SDS011;499;42.648;23.270;2023-11-21T11:36:37;21.43;;;11.80;;
1020;SDS011;499;42.648;23.270;2023-11-21T11:39:26;18.83;;;11.50;;
1020;SDS011;499;42.648;23.270;2023-11-21T11:41:59;18.13;;;12.73;;
1020;SDS011;499;42.648;23.270;2023-11-21T11:44:50;14.83;;;12.20;;
1020;SDS011;499;42.648;23.270;2023-11-21T11:47:21;13.67;;;10.67;;
1020;SDS011;499;42.648;23.270;2023-11-21T11:50:03;12.63;;;11.13;;
1020;SDS011;499;42.648;23.270;2023-11-21T11:52:40;12.70;;;10.53;;
1020;SDS011;499;42.648;23.270;2023-11-21T11:59:31;19.77;;;15.60;;
1020;SDS011;499;42.648;23.270;2023-11-21T12:03:07;20.17;;;18.03;;
1020;SDS011;499;42.648;23.270;2023-11-21T12:05:38;22.10;;;17.20;;
1020;SDS011;499;42.648;23.270;2023-11-21T12:11:49;23.47;;;18.80;;
1020;SDS011;499;42.648;23.270;2023-11-21T12:14:48;26.07;;;19.93;;
1020;SDS011;499;42.648;23.270;2023-11-21T12:17:22;23.57;;;19.50;;
1020;SDS011;499;42.648;23.270;2023-11-21T12:20:12;29.90;;;20.63;;
1020;SDS011;499;42.648;23.270;2023-11-21T12:23:05;24.53;;;20.07;;
1020;SDS011;499;42.648;23.270;2023-11-21T12:26:06;26.43;;;21.27;;
1020;SDS011;499;42.648;23.270;2023-11-21T12:29:08;29.53;;;22.60;;
1020;SDS011;499;42.648;23.270;2023-11-21T12:32:10;30.70;;;22.57;;
1020;SDS011;499;42.648;23.270;2023-11-21T12:35:14;38.03;;;26.17;;
1020;SDS011;499;42.648;23.270;2023-11-21T12:38:04;30.53;;;26.33;;
1020;SDS011;499;42.648;23.270;2023-11-21T12:40:56;37.53;;;30.80;;
1020;SDS011;499;42.648;23.270;2023-11-21T12:43:46;39.50;;;29.87;;
1020;SDS011;499;42.648;23.270;2023-11-21T12:46:27;37.83;;;30.60;;
1020;SDS011;499;42.648;23.270;2023-11-21T12:49:00;42.33;;;27.30;;
1020;SDS011;499;42.648;23.270;2023-11-21T12:51:34;29.73;;;24.40;;
1020;SDS011;499;42.648;23.270;2023-11-21T12:54:49;29.43;;;23.60;;
1020;SDS011;499;42.648;23.270;2023-11-21T12:57:56;33.23;;;24.20;;
1020;SDS011;499;42.648;23.270;2023-11-21T13:00:49;32.07;;;25.53;;
1020;SDS011;499;42.648;23.270;2023-11-21T13:03:29;34.07;;;27.70;;
1020;SDS011;499;42.648;23.270;2023-11-21T13:06:14;33.20;;;27.73;;
1020;SDS011;499;42.648;23.270;2023-11-21T13:08:44;33.67;;;26.30;;
1020;SDS011;499;42.648;23.270;2023-11-21T13:11:14;29.80;;;25.07;;
1020;SDS011;499;42.648;23.270;2023-11-21T13:13:51;34.17;;;25.67;;
1020;SDS011;499;42.648;23.270;2023-11-21T13:16:21;35.43;;;26.37;;
1020;SDS011;499;42.648;23.270;2023-11-21T13:18:52;31.03;;;25.90;;
1020;SDS011;499;42.648;23.270;2023-11-21T13:21:38;43.50;;;31.63;;
1020;SDS011;499;42.648;23.270;2023-11-21T13:24:12;40.53;;;30.70;;
1020;SDS011;499;42.648;23.270;2023-11-21T13:27:02;38.90;;;32.13;;
1020;SDS011;499;42.648;23.270;2023-11-21T13:30:00;38.27;;;34.10;;
1020;SDS011;499;42.648;23.270;2023-11-21T13:32:54;42.80;;;33.40;;
1020;SDS011;499;42.648;23.270;2023-11-21T13:35:27;38.20;;;31.80;;
1020;SDS011;499;42.648;23.270;2023-11-21T13:38:03;43.97;;;32.87;;
1020;SDS011;499;42.648;23.270;2023-11-21T13:40:50;43.77;;;34.70;;
1020;SDS011;499;42.648;23.270;2023-11-21T13:43:35;44.23;;;36.37;;
1020;SDS011;499;42.648;23.270;2023-11-21T13:46:21;39.97;;;32.73;;
1020;SDS011;499;42.648;23.270;2023-11-21T13:48:54;48.07;;;35.63;;
1020;SDS011;499;42.648;23.270;2023-11-21T13:51:36;35.40;;;28.70;;
1020;SDS011;499;42.648;23.270;2023-11-21T13:54:12;39.43;;;28.50;;
1020;SDS011;499;42.648;23.270;2023-11-21T13:56:56;35.43;;;29.73;;
1020;SDS011;499;42.648;23.270;2023-11-21T13:59:31;37.53;;;28.17;;
1020;SDS011;499;42.648;23.270;2023-11-21T14:02:23;33.43;;;27.10;;
1020;SDS011;499;42.648;23.270;2023-11-21T14:05:10;23.83;;;19.10;;
1020;SDS011;499;42.648;23.270;2023-11-21T14:08:11;30.67;;;24.23;;
1020;SDS011;499;42.648;23.270;2023-11-21T14:10:43;33.07;;;26.30;;
1020;SDS011;499;42.648;23.270;2023-11-21T14:13:54;32.93;;;27.57;;
1020;SDS011;499;42.648;23.270;2023-11-21T14:16:53;39.83;;;32.23;;
1020;SDS011;499;42.648;23.270;2023-11-21T14:19:24;36.70;;;30.67;;
1020;SDS011;499;42.648;23.270;2023-11-21T14:21:59;38.67;;;30.73;;
1020;SDS011;499;42.648;23.270;2023-11-21T14:24:50;36.53;;;30.17;;
1020;SDS011;499;42.648;23.270;2023-11-21T14:27:54;39.17;;;30.27;;
1020;SDS011;499;42.648;23.270;2023-11-21T14:30:47;33.27;;;28.07;;
1020;SDS011;499;42.648;23.270;2023-11-21T14:33:41;34.47;;;28.20;;
1020;SDS011;499;42.648;23.270;2023-11-21T14:36:30;40.23;;;32.33;;
1020;SDS011;499;42.648;23.270;2023-11-21T14:39:00;51.30;;;36.30;;
1020;SDS011;499;42.648;23.270;2023-11-21T14:41:32;42.70;;;33.90;;
1020;SDS011;499;42.648;23.270;2023-11-21T14:44:03;40.17;;;32.67;;
1020;SDS011;499;42.648;23.270;2023-11-21T14:46:53;45.33;;;35.17;;
1020;SDS011;499;42.648;23.270;2023-11-21T14:49:28;51.80;;;39.10;;
1020;SDS011;499;42.648;23.270;2023-11-21T14:52:27;46.97;;;36.70;;
1020;SDS011;499;42.648;23.270;2023-11-21T14:55:15;46.53;;;33.03;;
1020;SDS011;499;42.648;23.270;2023-11-21T14:58:17;31.07;;;23.53;;
1020;SDS011;499;42.648;23.270;2023-11-21T15:00:54;22.97;;;16.00;;
1020;SDS011;499;42.648;23.270;2023-11-21T15:03:27;19.90;;;14.30;;
1020;SDS011;499;42.648;23.270;2023-11-21T15:06:32;15.23;;;10.20;;
1020;SDS011;499;42.648;23.270;2023-11-21T15:12:09;16.23;;;10.70;;
1020;SDS011;499;42.648;23.270;2023-11-21T15:14:45;11.73;;;10.10;;
1020;SDS011;499;42.648;23.270;2023-11-21T15:17:31;27.10;;;21.93;;
1020;SDS011;499;42.648;23.270;2023-11-21T15:20:20;10.30;;;8.23;;
1020;SDS011;499;42.648;23.270;2023-11-21T15:22:53;9.10;;;6.93;;
1020;SDS011;499;42.648;23.270;2023-11-21T15:25:26;10.53;;;8.60;;
1020;SDS011;499;42.648;23.270;2023-11-21T15:27:57;12.17;;;10.67;;
1020;SDS011;499;42.648;23.270;2023-11-21T15:30:26;9.27;;;7.70;;
1020;SDS011;499;42.648;23.270;2023-11-21T15:32:57;11.80;;;8.03;;
1020;SDS011;499;42.648;23.270;2023-11-21T15:35:28;9.30;;;8.13;;
1020;SDS011;499;42.648;23.270;2023-11-21T15:38:03;9.97;;;9.03;;
1020;SDS011;499;42.648;23.270;2023-11-21T15:40:35;11.27;;;8.33;;
1020;SDS011;499;42.648;23.270;2023-11-21T15:43:24;6.47;;;5.70;;
1020;SDS011;499;42.648;23.270;2023-11-21T15:45:56;6.20;;;5.60;;
1020;SDS011;499;42.648;23.270;2023-11-21T15:48:28;5.70;;;5.10;;
1020;SDS011;499;42.648;23.270;2023-11-21T15:51:19;4.40;;;3.80;;
1020;SDS011;499;42.648;23.270;2023-11-21T15:54:06;7.30;;;6.60;;
1020;SDS011;499;42.648;23.270;2023-11-21T15:57:05;16.97;;;15.17;;
1020;SDS011;499;42.648;23.270;2023-11-21T15:59:49;10.73;;;9.20;;
1020;SDS011;499;42.648;23.270;2023-11-21T16:02:42;8.63;;;7.83;;
1020;SDS011;499;42.648;23.270;2023-11-21T16:05:16;5.90;;;5.43;;
1020;SDS011;499;42.648;23.270;2023-11-21T16:08:08;6.57;;;5.60;;
1020;SDS011;499;42.648;23.270;2023-11-21T16:11:14;5.60;;;4.67;;
1020;SDS011;499;42.648;23.270;2023-11-21T16:13:57;8.60;;;7.03;;
1020;SDS011;499;42.648;23.270;2023-11-21T16:16:30;11.20;;;8.80;;
1020;SDS011;499;42.648;23.270;2023-11-21T16:19:11;9.97;;;8.97;;
1020;SDS011;499;42.648;23.270;2023-11-21T16:21:53;12.70;;;11.13;;
1020;SDS011;499;42.648;23.270;2023-11-21T16:24:26;16.80;;;14.80;;
1020;SDS011;499;42.648;23.270;2023-11-21T16:27:17;23.60;;;17.20;;
1020;SDS011;499;42.648;23.270;2023-11-21T16:30:17;23.33;;;18.60;;
1020;SDS011;499;42.648;23.270;2023-11-21T16:33:00;21.80;;;15.53;;
1020;SDS011;499;42.648;23.270;2023-11-21T16:35:34;18.37;;;14.80;;
1020;SDS011;499;42.648;23.270;2023-11-21T16:38:18;17.60;;;13.07;;
1020;SDS011;499;42.648;23.270;2023-11-21T16:41:19;16.60;;;11.37;;
1020;SDS011;499;42.648;23.270;2023-11-21T16:43:55;10.87;;;8.90;;
1020;SDS011;499;42.648;23.270;2023-11-21T16:49:55;10.97;;;8.90;;
1020;SDS011;499;42.648;23.270;2023-11-21T16:52:27;15.10;;;11.27;;
1020;SDS011;499;42.648;23.270;2023-11-21T16:54:58;17.00;;;15.23;;
1020;SDS011;499;42.648;23.270;2023-11-21T16:57:39;17.80;;;15.37;;
1020;SDS011;499;42.648;23.270;2023-11-21T17:00:18;22.17;;;19.77;;
1020;SDS011;499;42.648;23.270;2023-11-21T17:02:57;14.97;;;11.73;;
1020;SDS011;499;42.648;23.270;2023-11-21T17:05:45;12.50;;;10.30;;
1020;SDS011;499;42.648;23.270;2023-11-21T17:08:40;16.90;;;14.33;;
1020;SDS011;499;42.648;23.270;2023-11-21T17:11:22;13.17;;;11.30;;
1020;SDS011;499;42.648;23.270;2023-11-21T17:13:55;15.63;;;12.07;;
1020;SDS011;499;42.648;23.270;2023-11-21T17:16:54;16.23;;;13.53;;
1020;SDS011;499;42.648;23.270;2023-11-21T17:19:53;15.80;;;11.37;;
1020;SDS011;499;42.648;23.270;2023-11-21T17:29:16;18.70;;;14.63;;
1020;SDS011;499;42.648;23.270;2023-11-21T17:31:57;13.10;;;9.50;;
1020;SDS011;499;42.648;23.270;2023-11-21T17:34:41;13.23;;;11.93;;
1020;SDS011;499;42.648;23.270;2023-11-21T17:37:28;17.67;;;15.27;;
1020;SDS011;499;42.648;23.270;2023-11-21T17:40:21;25.30;;;19.30;;